sensor_id;sensor_type;location;lat;lon;timestamp;P1;durP1;ratioP1;P2;durP2;ratioP2
69034;SDS011;56091;55.756;37.412;2022-09-30T00:04:31;15.07;;;7.33;;
69034;SDS011;56091;55.756;37.412;2022-09-30T00:09:32;13.90;;;7.30;;
69034;SDS011;56091;55.756;37.412;2022-09-30T00:14:33;16.40;;;7.40;;
69034;SDS011;56091;55.756;37.412;2022-09-30T00:19:34;15.70;;;7.30;;
69034;SDS011;56091;55.756;37.412;2022-09-30T00:24:35;15.32;;;7.80;;
69034;SDS011;56091;55.756;37.412;2022-09-30T00:29:35;16.63;;;7.50;;
69034;SDS011;56091;55.756;37.412;2022-09-30T00:34:36;13.30;;;7.27;;
69034;SDS011;56091;55.756;37.412;2022-09-30T00:39:37;16.50;;;7.45;;
69034;SDS011;56091;55.756;37.412;2022-09-30T00:55:22;12.87;;;7.00;;
69034;SDS011;56091;55.756;37.412;2022-09-30T01:00:27;12.43;;;6.78;;
69034;SDS011;56091;55.756;37.412;2022-09-30T01:05:28;14.57;;;7.43;;
69034;SDS011;56091;55.756;37.412;2022-09-30T01:10:33;16.60;;;7.72;;
69034;SDS011;56091;55.756;37.412;2022-09-30T01:15:45;16.37;;;7.53;;
69034;SDS011;56091;55.756;37.412;2022-09-30T01:31:13;19.93;;;7.40;;
69034;SDS011;56091;55.756;37.412;2022-09-30T01:36:26;17.73;;;6.50;;
69034;SDS011;56091;55.756;37.412;2022-09-30T01:46:48;12.50;;;6.38;;
69034;SDS011;56091;55.756;37.412;2022-09-30T01:52:08;16.03;;;6.57;;
69034;SDS011;56091;55.756;37.412;2022-09-30T01:57:12;12.68;;;6.35;;
69034;SDS011;56091;55.756;37.412;2022-09-30T02:02:28;15.57;;;6.10;;
69034;SDS011;56091;55.756;37.412;2022-09-30T02:07:35;14.20;;;6.38;;
69034;SDS011;56091;55.756;37.412;2022-09-30T02:12:40;17.53;;;6.40;;
69034;SDS011;56091;55.756;37.412;2022-09-30T02:17:51;12.38;;;6.20;;
69034;SDS011;56091;55.756;37.412;2022-09-30T02:23:00;14.37;;;6.20;;
69034;SDS011;56091;55.756;37.412;2022-09-30T02:28:07;14.35;;;6.30;;
69034;SDS011;56091;55.756;37.412;2022-09-30T02:33:14;11.97;;;6.13;;
69034;SDS011;56091;55.756;37.412;2022-09-30T02:38:21;14.43;;;5.93;;
69034;SDS011;56091;55.756;37.412;2022-09-30T02:43:26;14.30;;;6.40;;
69034;SDS011;56091;55.756;37.412;2022-09-30T02:48:29;12.45;;;6.18;;
69034;SDS011;56091;55.756;37.412;2022-09-30T02:53:43;13.70;;;7.00;;
69034;SDS011;56091;55.756;37.412;2022-09-30T02:58:56;13.68;;;6.38;;
69034;SDS011;56091;55.756;37.412;2022-09-30T03:03:58;16.07;;;7.53;;
69034;SDS011;56091;55.756;37.412;2022-09-30T03:09:04;13.82;;;7.35;;
69034;SDS011;56091;55.756;37.412;2022-09-30T03:30:27;13.95;;;7.00;;
69034;SDS011;56091;55.756;37.412;2022-09-30T03:35:41;17.43;;;6.97;;
69034;SDS011;56091;55.756;37.412;2022-09-30T03:46:39;15.63;;;6.80;;
69034;SDS011;56091;55.756;37.412;2022-09-30T03:51:44;13.65;;;6.78;;
69034;SDS011;56091;55.756;37.412;2022-09-30T03:56:45;14.10;;;7.17;;
69034;SDS011;56091;55.756;37.412;2022-09-30T04:01:46;15.35;;;6.70;;
69034;SDS011;56091;55.756;37.412;2022-09-30T04:06:52;15.87;;;7.77;;
69034;SDS011;56091;55.756;37.412;2022-09-30T04:11:53;14.07;;;7.38;;
69034;SDS011;56091;55.756;37.412;2022-09-30T04:16:53;13.23;;;7.10;;
69034;SDS011;56091;55.756;37.412;2022-09-30T04:21:54;16.58;;;7.95;;
69034;SDS011;56091;55.756;37.412;2022-09-30T04:26:55;17.07;;;7.27;;
69034;SDS011;56091;55.756;37.412;2022-09-30T04:31:56;16.67;;;7.33;;
69034;SDS011;56091;55.756;37.412;2022-09-30T04:36:56;18.88;;;7.72;;
69034;SDS011;56091;55.756;37.412;2022-09-30T04:41:57;13.90;;;7.47;;
69034;SDS011;56091;55.756;37.412;2022-09-30T04:46:58;17.17;;;8.20;;
69034;SDS011;56091;55.756;37.412;2022-09-30T04:52:00;16.10;;;7.90;;
69034;SDS011;56091;55.756;37.412;2022-09-30T04:57:01;14.45;;;7.90;;
69034;SDS011;56091;55.756;37.412;2022-09-30T05:02:01;16.20;;;8.00;;
69034;SDS011;56091;55.756;37.412;2022-09-30T05:07:03;26.23;;;8.50;;
69034;SDS011;56091;55.756;37.412;2022-09-30T05:12:11;24.60;;;8.82;;
69034;SDS011;56091;55.756;37.412;2022-09-30T05:17:11;16.40;;;7.70;;
69034;SDS011;56091;55.756;37.412;2022-09-30T05:22:13;17.02;;;7.95;;
69034;SDS011;56091;55.756;37.412;2022-09-30T05:27:14;18.03;;;8.40;;
69034;SDS011;56091;55.756;37.412;2022-09-30T05:32:14;15.82;;;7.93;;
69034;SDS011;56091;55.756;37.412;2022-09-30T05:37:15;21.80;;;7.73;;
69034;SDS011;56091;55.756;37.412;2022-09-30T05:42:16;18.92;;;8.98;;
69034;SDS011;56091;55.756;37.412;2022-09-30T05:47:18;18.57;;;8.20;;
69034;SDS011;56091;55.756;37.412;2022-09-30T05:52:19;19.13;;;9.00;;
69034;SDS011;56091;55.756;37.412;2022-09-30T05:57:21;19.43;;;8.07;;
69034;SDS011;56091;55.756;37.412;2022-09-30T06:02:22;18.15;;;9.20;;
69034;SDS011;56091;55.756;37.412;2022-09-30T06:07:28;23.97;;;9.43;;
69034;SDS011;56091;55.756;37.412;2022-09-30T06:12:29;23.05;;;10.00;;
69034;SDS011;56091;55.756;37.412;2022-09-30T06:17:30;28.43;;;10.00;;
69034;SDS011;56091;55.756;37.412;2022-09-30T06:22:31;21.80;;;9.50;;
69034;SDS011;56091;55.756;37.412;2022-09-30T06:27:35;23.55;;;9.40;;
69034;SDS011;56091;55.756;37.412;2022-09-30T06:32:39;26.17;;;9.30;;
69034;SDS011;56091;55.756;37.412;2022-09-30T06:37:39;22.90;;;8.88;;
69034;SDS011;56091;55.756;37.412;2022-09-30T06:42:42;23.53;;;9.10;;
69034;SDS011;56091;55.756;37.412;2022-09-30T06:47:44;20.85;;;8.98;;
69034;SDS011;56091;55.756;37.412;2022-09-30T06:52:55;27.33;;;8.97;;
69034;SDS011;56091;55.756;37.412;2022-09-30T06:57:58;22.45;;;8.70;;
69034;SDS011;56091;55.756;37.412;2022-09-30T07:02:59;21.03;;;8.43;;
69034;SDS011;56091;55.756;37.412;2022-09-30T07:07:59;22.65;;;8.63;;
69034;SDS011;56091;55.756;37.412;2022-09-30T07:13:01;20.63;;;8.57;;
69034;SDS011;56091;55.756;37.412;2022-09-30T07:18:01;21.63;;;8.65;;
69034;SDS011;56091;55.756;37.412;2022-09-30T07:23:02;21.03;;;9.13;;
69034;SDS011;56091;55.756;37.412;2022-09-30T07:28:03;17.55;;;8.90;;
69034;SDS011;56091;55.756;37.412;2022-09-30T07:33:04;20.87;;;9.00;;
69034;SDS011;56091;55.756;37.412;2022-09-30T07:38:06;20.25;;;8.68;;
69034;SDS011;56091;55.756;37.412;2022-09-30T07:43:08;18.53;;;8.73;;
69034;SDS011;56091;55.756;37.412;2022-09-30T07:48:09;23.50;;;8.43;;
69034;SDS011;56091;55.756;37.412;2022-09-30T07:53:29;20.38;;;8.70;;
69034;SDS011;56091;55.756;37.412;2022-09-30T07:58:30;17.90;;;8.30;;
69034;SDS011;56091;55.756;37.412;2022-09-30T08:03:34;23.45;;;8.38;;
69034;SDS011;56091;55.756;37.412;2022-09-30T08:08:38;23.37;;;8.90;;
69034;SDS011;56091;55.756;37.412;2022-09-30T08:13:39;26.23;;;8.88;;
69034;SDS011;56091;55.756;37.412;2022-09-30T08:18:41;20.07;;;10.07;;
69034;SDS011;56091;55.756;37.412;2022-09-30T08:23:41;26.65;;;10.98;;
69034;SDS011;56091;55.756;37.412;2022-09-30T08:28:42;23.03;;;10.90;;
69034;SDS011;56091;55.756;37.412;2022-09-30T08:33:46;21.73;;;9.85;;
69034;SDS011;56091;55.756;37.412;2022-09-30T08:38:47;24.10;;;11.50;;
69034;SDS011;56091;55.756;37.412;2022-09-30T08:43:53;20.85;;;12.15;;
69034;SDS011;56091;55.756;37.412;2022-09-30T08:54:47;21.00;;;10.90;;
69034;SDS011;56091;55.756;37.412;2022-09-30T08:59:55;20.57;;;10.13;;
69034;SDS011;56091;55.756;37.412;2022-09-30T09:05:02;18.90;;;10.98;;
69034;SDS011;56091;55.756;37.412;2022-09-30T09:15:49;21.65;;;9.90;;
69034;SDS011;56091;55.756;37.412;2022-09-30T09:25:57;21.70;;;10.45;;
69034;SDS011;56091;55.756;37.412;2022-09-30T09:30:59;19.10;;;10.37;;
69034;SDS011;56091;55.756;37.412;2022-09-30T09:41:15;20.00;;;10.47;;
69034;SDS011;56091;55.756;37.412;2022-09-30T09:46:44;21.10;;;10.77;;
69034;SDS011;56091;55.756;37.412;2022-09-30T09:52:36;20.17;;;10.23;;
69034;SDS011;56091;55.756;37.412;2022-09-30T09:57:18;20.77;;;10.07;;
69034;SDS011;56091;55.756;37.412;2022-09-30T10:02:31;22.03;;;10.83;;
69034;SDS011;56091;55.756;37.412;2022-09-30T10:07:32;26.60;;;11.13;;
69034;SDS011;56091;55.756;37.412;2022-09-30T10:12:33;20.23;;;11.10;;
69034;SDS011;56091;55.756;37.412;2022-09-30T10:17:35;27.23;;;11.60;;
69034;SDS011;56091;55.756;37.412;2022-09-30T10:22:37;22.23;;;11.27;;
69034;SDS011;56091;55.756;37.412;2022-09-30T10:27:39;23.98;;;11.70;;
69034;SDS011;56091;55.756;37.412;2022-09-30T10:32:55;22.40;;;11.50;;
69034;SDS011;56091;55.756;37.412;2022-09-30T10:37:56;20.42;;;11.98;;
69034;SDS011;56091;55.756;37.412;2022-09-30T10:42:59;23.50;;;11.47;;
69034;SDS011;56091;55.756;37.412;2022-09-30T10:48:02;21.95;;;11.65;;
69034;SDS011;56091;55.756;37.412;2022-09-30T10:53:14;21.87;;;10.83;;
69034;SDS011;56091;55.756;37.412;2022-09-30T11:03:39;20.87;;;11.30;;
69034;SDS011;56091;55.756;37.412;2022-09-30T11:08:55;20.63;;;10.95;;
69034;SDS011;56091;55.756;37.412;2022-09-30T11:19:30;20.42;;;11.02;;
69034;SDS011;56091;55.756;37.412;2022-09-30T11:40:13;20.52;;;10.80;;
69034;SDS011;56091;55.756;37.412;2022-09-30T11:55:55;21.63;;;11.07;;
69034;SDS011;56091;55.756;37.412;2022-09-30T12:06:32;20.23;;;10.53;;
69034;SDS011;56091;55.756;37.412;2022-09-30T12:11:53;22.92;;;10.77;;
69034;SDS011;56091;55.756;37.412;2022-09-30T12:17:09;22.70;;;10.83;;
69034;SDS011;56091;55.756;37.412;2022-09-30T12:22:31;24.27;;;10.88;;
69034;SDS011;56091;55.756;37.412;2022-09-30T12:27:53;19.93;;;10.60;;
69034;SDS011;56091;55.756;37.412;2022-09-30T12:33:27;21.33;;;10.60;;
69034;SDS011;56091;55.756;37.412;2022-09-30T12:49:51;21.27;;;11.23;;
69034;SDS011;56091;55.756;37.412;2022-09-30T12:54:59;18.45;;;10.25;;
69034;SDS011;56091;55.756;37.412;2022-09-30T13:00:22;19.10;;;10.73;;
69034;SDS011;56091;55.756;37.412;2022-09-30T13:10:28;21.53;;;10.53;;
69034;SDS011;56091;55.756;37.412;2022-09-30T13:25:55;20.03;;;11.53;;
69034;SDS011;56091;55.756;37.412;2022-09-30T13:31:15;20.85;;;11.85;;
69034;SDS011;56091;55.756;37.412;2022-09-30T13:36:24;23.93;;;11.67;;
69034;SDS011;56091;55.756;37.412;2022-09-30T13:41:26;23.23;;;12.40;;
69034;SDS011;56091;55.756;37.412;2022-09-30T13:46:34;20.97;;;11.47;;
69034;SDS011;56091;55.756;37.412;2022-09-30T13:51:42;23.42;;;12.40;;
69034;SDS011;56091;55.756;37.412;2022-09-30T13:56:44;21.47;;;11.47;;
69034;SDS011;56091;55.756;37.412;2022-09-30T14:22:59;24.48;;;12.48;;
69034;SDS011;56091;55.756;37.412;2022-09-30T14:28:03;23.40;;;11.70;;
69034;SDS011;56091;55.756;37.412;2022-09-30T14:33:22;23.38;;;12.50;;
69034;SDS011;56091;55.756;37.412;2022-09-30T14:38:25;21.20;;;12.47;;
69034;SDS011;56091;55.756;37.412;2022-09-30T14:43:29;20.58;;;11.80;;
69034;SDS011;56091;55.756;37.412;2022-09-30T14:48:35;23.40;;;12.37;;
69034;SDS011;56091;55.756;37.412;2022-09-30T14:53:40;25.45;;;12.50;;
69034;SDS011;56091;55.756;37.412;2022-09-30T14:58:53;25.60;;;12.20;;
69034;SDS011;56091;55.756;37.412;2022-09-30T15:09:33;22.47;;;12.53;;
69034;SDS011;56091;55.756;37.412;2022-09-30T15:14:52;24.70;;;12.23;;
69034;SDS011;56091;55.756;37.412;2022-09-30T15:20:00;24.70;;;13.00;;
69034;SDS011;56091;55.756;37.412;2022-09-30T15:25:02;24.38;;;12.55;;
69034;SDS011;56091;55.756;37.412;2022-09-30T15:30:26;21.73;;;12.67;;
69034;SDS011;56091;55.756;37.412;2022-09-30T15:35:28;24.42;;;13.07;;
69034;SDS011;56091;55.756;37.412;2022-09-30T15:40:32;23.47;;;13.27;;
69034;SDS011;56091;55.756;37.412;2022-09-30T15:45:52;26.73;;;13.07;;
69034;SDS011;56091;55.756;37.412;2022-09-30T15:50:58;20.33;;;11.77;;
69034;SDS011;56091;55.756;37.412;2022-09-30T16:06:25;19.55;;;11.43;;
69034;SDS011;56091;55.756;37.412;2022-09-30T16:11:35;20.33;;;11.07;;
69034;SDS011;56091;55.756;37.412;2022-09-30T16:16:40;21.77;;;11.20;;
69034;SDS011;56091;55.756;37.412;2022-09-30T16:21:42;20.37;;;11.30;;
69034;SDS011;56091;55.756;37.412;2022-09-30T16:26:47;20.55;;;11.88;;
69034;SDS011;56091;55.756;37.412;2022-09-30T16:31:49;21.07;;;12.00;;
69034;SDS011;56091;55.756;37.412;2022-09-30T16:36:53;20.20;;;10.80;;
69034;SDS011;56091;55.756;37.412;2022-09-30T16:42:05;20.67;;;11.37;;
69034;SDS011;56091;55.756;37.412;2022-09-30T16:47:06;20.02;;;11.27;;
69034;SDS011;56091;55.756;37.412;2022-09-30T16:52:12;18.63;;;10.50;;
69034;SDS011;56091;55.756;37.412;2022-09-30T16:57:14;21.92;;;11.18;;
69034;SDS011;56091;55.756;37.412;2022-09-30T17:02:14;24.53;;;11.20;;
69034;SDS011;56091;55.756;37.412;2022-09-30T17:07:15;23.20;;;12.15;;
69034;SDS011;56091;55.756;37.412;2022-09-30T17:12:17;24.03;;;11.60;;
69034;SDS011;56091;55.756;37.412;2022-09-30T17:17:18;21.47;;;11.83;;
69034;SDS011;56091;55.756;37.412;2022-09-30T17:22:19;26.10;;;11.93;;
69034;SDS011;56091;55.756;37.412;2022-09-30T17:27:19;23.77;;;12.03;;
69034;SDS011;56091;55.756;37.412;2022-09-30T17:32:20;21.17;;;11.93;;
69034;SDS011;56091;55.756;37.412;2022-09-30T17:37:21;24.57;;;11.70;;
69034;SDS011;56091;55.756;37.412;2022-09-30T17:42:22;23.40;;;11.93;;
69034;SDS011;56091;55.756;37.412;2022-09-30T17:47:41;22.30;;;12.50;;
69034;SDS011;56091;55.756;37.412;2022-09-30T17:52:42;25.85;;;12.80;;
69034;SDS011;56091;55.756;37.412;2022-09-30T17:57:43;23.30;;;12.30;;
69034;SDS011;56091;55.756;37.412;2022-09-30T18:02:44;22.40;;;13.03;;
69034;SDS011;56091;55.756;37.412;2022-09-30T18:07:44;25.70;;;13.30;;
69034;SDS011;56091;55.756;37.412;2022-09-30T18:12:45;25.20;;;12.80;;
69034;SDS011;56091;55.756;37.412;2022-09-30T18:17:51;26.95;;;13.52;;
69034;SDS011;56091;55.756;37.412;2022-09-30T18:22:51;28.90;;;13.83;;
69034;SDS011;56091;55.756;37.412;2022-09-30T18:27:55;27.02;;;13.98;;
69034;SDS011;56091;55.756;37.412;2022-09-30T18:32:57;27.17;;;13.00;;
69034;SDS011;56091;55.756;37.412;2022-09-30T18:38:03;28.65;;;14.18;;
69034;SDS011;56091;55.756;37.412;2022-09-30T18:43:06;26.13;;;13.47;;
69034;SDS011;56091;55.756;37.412;2022-09-30T18:48:07;27.02;;;14.05;;
69034;SDS011;56091;55.756;37.412;2022-09-30T18:53:11;26.80;;;13.50;;
69034;SDS011;56091;55.756;37.412;2022-09-30T18:58:14;27.85;;;13.55;;
69034;SDS011;56091;55.756;37.412;2022-09-30T19:03:16;26.40;;;13.10;;
69034;SDS011;56091;55.756;37.412;2022-09-30T19:08:18;25.80;;;13.18;;
69034;SDS011;56091;55.756;37.412;2022-09-30T19:13:20;28.37;;;13.50;;
69034;SDS011;56091;55.756;37.412;2022-09-30T19:18:28;24.73;;;13.98;;
69034;SDS011;56091;55.756;37.412;2022-09-30T19:23:31;31.33;;;13.77;;
69034;SDS011;56091;55.756;37.412;2022-09-30T19:28:32;26.55;;;13.52;;
69034;SDS011;56091;55.756;37.412;2022-09-30T19:33:38;24.37;;;13.10;;
69034;SDS011;56091;55.756;37.412;2022-09-30T19:38:40;26.58;;;13.45;;
69034;SDS011;56091;55.756;37.412;2022-09-30T19:43:42;29.73;;;14.60;;
69034;SDS011;56091;55.756;37.412;2022-09-30T19:48:45;29.77;;;14.88;;
69034;SDS011;56091;55.756;37.412;2022-09-30T19:53:47;30.03;;;15.50;;
69034;SDS011;56091;55.756;37.412;2022-09-30T19:58:49;30.13;;;15.05;;
69034;SDS011;56091;55.756;37.412;2022-09-30T20:03:53;32.13;;;16.23;;
69034;SDS011;56091;55.756;37.412;2022-09-30T20:09:01;34.10;;;16.15;;
69034;SDS011;56091;55.756;37.412;2022-09-30T20:14:06;30.97;;;16.87;;
69034;SDS011;56091;55.756;37.412;2022-09-30T20:19:25;35.95;;;17.15;;
69034;SDS011;56091;55.756;37.412;2022-09-30T20:24:26;31.07;;;15.77;;
69034;SDS011;56091;55.756;37.412;2022-09-30T20:29:27;35.92;;;16.75;;
69034;SDS011;56091;55.756;37.412;2022-09-30T20:34:28;32.20;;;16.20;;
69034;SDS011;56091;55.756;37.412;2022-09-30T20:39:29;33.00;;;15.83;;
69034;SDS011;56091;55.756;37.412;2022-09-30T20:44:29;30.58;;;15.77;;
69034;SDS011;56091;55.756;37.412;2022-09-30T20:49:32;33.67;;;16.50;;
69034;SDS011;56091;55.756;37.412;2022-09-30T20:54:33;34.50;;;16.83;;
69034;SDS011;56091;55.756;37.412;2022-09-30T20:59:35;32.97;;;16.70;;
69034;SDS011;56091;55.756;37.412;2022-09-30T21:04:36;31.30;;;16.08;;
69034;SDS011;56091;55.756;37.412;2022-09-30T21:09:37;33.13;;;16.47;;
69034;SDS011;56091;55.756;37.412;2022-09-30T21:14:38;34.17;;;16.57;;
69034;SDS011;56091;55.756;37.412;2022-09-30T21:19:44;34.15;;;16.33;;
69034;SDS011;56091;55.756;37.412;2022-09-30T21:24:45;36.63;;;17.30;;
69034;SDS011;56091;55.756;37.412;2022-09-30T21:29:47;33.97;;;17.08;;
69034;SDS011;56091;55.756;37.412;2022-09-30T21:34:47;34.60;;;17.33;;
69034;SDS011;56091;55.756;37.412;2022-09-30T21:39:48;36.20;;;17.00;;
69034;SDS011;56091;55.756;37.412;2022-09-30T21:44:50;33.77;;;16.00;;
69034;SDS011;56091;55.756;37.412;2022-09-30T21:49:51;33.05;;;16.80;;
69034;SDS011;56091;55.756;37.412;2022-09-30T21:54:52;35.60;;;16.67;;
69034;SDS011;56091;55.756;37.412;2022-09-30T21:59:56;31.55;;;16.83;;
69034;SDS011;56091;55.756;37.412;2022-09-30T22:04:57;33.27;;;16.97;;
69034;SDS011;56091;55.756;37.412;2022-09-30T22:09:57;32.92;;;16.70;;
69034;SDS011;56091;55.756;37.412;2022-09-30T22:15:01;33.70;;;15.90;;
69034;SDS011;56091;55.756;37.412;2022-09-30T22:20:03;27.50;;;14.03;;
69034;SDS011;56091;55.756;37.412;2022-09-30T22:25:04;25.10;;;12.77;;
69034;SDS011;56091;55.756;37.412;2022-09-30T22:30:13;27.97;;;12.63;;
69034;SDS011;56091;55.756;37.412;2022-09-30T22:35:14;24.35;;;11.27;;
69034;SDS011;56091;55.756;37.412;2022-09-30T22:40:34;24.17;;;12.47;;
69034;SDS011;56091;55.756;37.412;2022-09-30T22:45:35;23.65;;;12.68;;
69034;SDS011;56091;55.756;37.412;2022-09-30T22:50:36;24.83;;;12.63;;
69034;SDS011;56091;55.756;37.412;2022-09-30T22:55:37;25.92;;;11.95;;
69034;SDS011;56091;55.756;37.412;2022-09-30T23:00:37;26.73;;;12.33;;
69034;SDS011;56091;55.756;37.412;2022-09-30T23:05:38;24.73;;;11.33;;
69034;SDS011;56091;55.756;37.412;2022-09-30T23:10:45;25.25;;;12.32;;
69034;SDS011;56091;55.756;37.412;2022-09-30T23:15:55;21.57;;;11.13;;
69034;SDS011;56091;55.756;37.412;2022-09-30T23:20:58;23.75;;;12.30;;
69034;SDS011;56091;55.756;37.412;2022-09-30T23:26:01;27.30;;;12.53;;
69034;SDS011;56091;55.756;37.412;2022-09-30T23:31:07;23.92;;;12.52;;
69034;SDS011;56091;55.756;37.412;2022-09-30T23:36:10;24.97;;;11.67;;
69034;SDS011;56091;55.756;37.412;2022-09-30T23:41:11;24.52;;;12.20;;
69034;SDS011;56091;55.756;37.412;2022-09-30T23:46:13;26.77;;;12.93;;
69034;SDS011;56091;55.756;37.412;2022-09-30T23:51:15;26.85;;;13.00;;
69034;SDS011;56091;55.756;37.412;2022-09-30T23:56:18;24.93;;;12.33;;
